WetterOnline ( https://www.wetteronline.de )

Wetter aktuell Eslohe

Aktuelles Wetter: Kahler Asten (841m)

6-stündlich | Neueste Meldungen
Ortszeit Temperatur Wetter
Do, 09.04. 2:00 13.2° C leicht bewölkt
Mi, 08.04. 20:00 14.7° C wolkenlos
Mi, 08.04. 14:00 17.1° C leicht bewölkt
Mi, 08.04. 8:00 11.1° C wolkenlos
Mi, 08.04. 2:00 9.0° C wolkenlos
Di, 07.04. 20:00 11.9° C fast wolkenlos
Di, 07.04. 14:00 12.6° C bewölkt
Di, 07.04. 8:00 7.5° C leicht bewölkt
Ortszeit Temperatur Wetter
Do, 09.04. 3:30 12.4° C wolkenlos
Do, 09.04. 3:20 12.4° C wolkenlos
Do, 09.04. 3:10 12.7° C wolkenlos
Do, 09.04. 3:00 12.9° C wolkenlos
Do, 09.04. 2:50 12.9° C wolkenlos
Do, 09.04. 2:40 13.0° C fast wolkenlos
Do, 09.04. 2:30 13.0° C leicht bewölkt
Do, 09.04. 2:00 13.2° C leicht bewölkt
Do, 09.04. 1:30 13.4° C bewölkt
Do, 09.04. 1:00 13.5° C bewölkt
Do, 09.04. 0:30 13.7° C bedeckt
Do, 09.04. 0:00 13.3° C bewölkt
Ortszeit Relative Feuchte Sichtweite
Do, 09.04. 2:00 40% 35 km
Mi, 08.04. 20:00 41% 40 km
Mi, 08.04. 14:00 31% 50 km
Mi, 08.04. 8:00 51% 35 km
Mi, 08.04. 2:00 75% 27 km
Di, 07.04. 20:00 65% 45 km
Di, 07.04. 14:00 66% 27 km
Di, 07.04. 8:00 89% 7 km
Ortszeit Relative Feuchte Sichtweite
Do, 09.04. 3:30 43% 30 km
Do, 09.04. 3:20 43% -
Do, 09.04. 3:10 42% -
Do, 09.04. 3:00 40% 30 km
Do, 09.04. 2:50 40% -
Do, 09.04. 2:40 41% -
Do, 09.04. 2:30 41% 40 km
Do, 09.04. 2:00 40% 35 km
Do, 09.04. 1:30 39% 35 km
Do, 09.04. 1:00 39% 35 km
Do, 09.04. 0:30 39% 40 km
Do, 09.04. 0:00 39% 40 km
Ortszeit Niederschlagsmenge Niederschlagsart
Do, 09.04. 2:00 0.0 l/m2 in 6 Std. -
Mi, 08.04. 20:00 0.0 l/m2 in 12 Std. -
Mi, 08.04. 14:00 0.0 l/m2 in 6 Std. -
Mi, 08.04. 8:00 0.0 l/m2 in 12 Std. -
Mi, 08.04. 2:00 0.0 l/m2 in 6 Std. -
Di, 07.04. 20:00 0.0 l/m2 in 12 Std. -
Di, 07.04. 14:00 0.0 l/m2 in 6 Std. -
Di, 07.04. 8:00 0.0 l/m2 in 12 Std. -
Ortszeit Niederschlagsmenge Niederschlagsart
Do, 09.04. 3:30 0.0 l/m2 in 1 Std. -
Do, 09.04. 3:20 keine Meldung -
Do, 09.04. 3:10 keine Meldung -
Do, 09.04. 3:00 0.0 l/m2 in 1 Std. -
Do, 09.04. 2:50 keine Meldung -
Do, 09.04. 2:40 keine Meldung -
Do, 09.04. 2:30 0.0 l/m2 in 1 Std. -
Do, 09.04. 2:00 0.0 l/m2 in 1 Std. -
Do, 09.04. 1:30 0.0 l/m2 in 1 Std. -
Do, 09.04. 1:00 0.0 l/m2 in 1 Std. -
Do, 09.04. 0:30 0.0 l/m2 in 1 Std. -
Do, 09.04. 0:00 0.0 l/m2 in 1 Std. -
Ortszeit Stärke Spitze Richtung
km/h Bft. km/h Grad Sektor
Do, 09.04. 2:00 6 1 22 340° N
Mi, 08.04. 20:00 13 3 26 20° N
Mi, 08.04. 14:00 17 3 30 200° S
Mi, 08.04. 8:00 19 3 33 160° S
Mi, 08.04. 2:00 20 4 33 110° O
Di, 07.04. 20:00 15 3 26 90° O
Di, 07.04. 14:00 13 3 20 110° O
Di, 07.04. 8:00 9 2 33 10° N
Ortszeit Stärke Spitze Richtung
km/h Bft. km/h Grad Sektor
Do, 09.04. 3:30 13 3 17 340° N
Do, 09.04. 3:20 13 3 - 340° N
Do, 09.04. 3:10 11 2 - 310° NW
Do, 09.04. 3:00 11 2 18 310° NW
Do, 09.04. 2:50 11 2 - 310° NW
Do, 09.04. 2:40 9 2 - 320° NW
Do, 09.04. 2:30 7 2 11 330° NW
Do, 09.04. 2:00 6 1 7 340° N
Do, 09.04. 1:30 4 1 7 30° NO
Do, 09.04. 1:00 4 1 11 30° NO
Do, 09.04. 0:30 7 2 11 340° N
Do, 09.04. 0:00 4 1 11 150° SO
Ortszeit Untergrenze Bedeckung Gattung
total tief tief mittel hoch
Do, 09.04. 2:00 1800 m 3/8 3/8 - - -
Mi, 08.04. 20:00 - 0/8 0/8 - - -
Mi, 08.04. 14:00 1800 m 2/8 2/8 - - -
Mi, 08.04. 8:00 - 0/8 0/8 - - -
Mi, 08.04. 2:00 - 0/8 0/8 - - -
Di, 07.04. 20:00 7800 m 1/8 0/8 - - -
Di, 07.04. 14:00 600 m 7/8 7/8 - - -
Di, 07.04. 8:00 60 m 2/8 2/8 - - -
Ortszeit Bedeckungsgrad in Achtel und Wolkenuntergrenze
Do, 09.04. 3:30 keine Wolken
Do, 09.04. 3:20 keine Wolken
Do, 09.04. 3:10 keine Wolken
Do, 09.04. 3:00 keine Wolken
Do, 09.04. 2:50 keine Wolken
Do, 09.04. 2:40 1(1800m)
Do, 09.04. 2:30 2(1800m)
Do, 09.04. 2:00 3(1800m)
Do, 09.04. 1:30 7(1800m)
Do, 09.04. 1:00 7(1800m)
Do, 09.04. 0:30 8(1800m)
Do, 09.04. 0:00 7(1800m)
Ortszeit Stationsdruck (hPa) Tendenz (hPa in 3 Std.)
Do, 09.04. 2:00 924 - 0,4
Mi, 08.04. 20:00 924 - 0,5
Mi, 08.04. 14:00 926 - 1,2
Mi, 08.04. 8:00 928 - 0,7
Mi, 08.04. 2:00 930 - 0,4
Di, 07.04. 20:00 930 - 0,6
Di, 07.04. 14:00 931 - 0,1
Di, 07.04. 8:00 930 + 1,5
Ortszeit Stationsdruck (hPa) Tendenz (hPa in 3 Std.)
Do, 09.04. 3:30 924 - 0,8
Do, 09.04. 3:20 924 keine Meldung
Do, 09.04. 3:10 924 keine Meldung
Do, 09.04. 3:00 924 - 0,7
Do, 09.04. 2:50 924 keine Meldung
Do, 09.04. 2:40 924 keine Meldung
Do, 09.04. 2:30 924 - 0,6
Do, 09.04. 2:00 924 - 0,4
Do, 09.04. 1:30 924 - 0,4
Do, 09.04. 1:00 925 - 0,3
Do, 09.04. 0:30 925 - 0,2
Do, 09.04. 0:00 925 - 0,1
Ortszeit Schneehöhe (cm)
Do, 09.04. 2:00 0
Mi, 08.04. 20:00 0
Mi, 08.04. 14:00 0
Mi, 08.04. 8:00 0
Mi, 08.04. 2:00 0
Di, 07.04. 20:00 0
Di, 07.04. 14:00 0
Di, 07.04. 8:00 0
Ortszeit Schneehöhe (cm)
Do, 09.04. 3:30 0
Do, 09.04. 3:20 0
Do, 09.04. 3:10 0
Do, 09.04. 3:00 0
Do, 09.04. 2:50 0
Do, 09.04. 2:40 0
Do, 09.04. 2:30 0
Do, 09.04. 2:00 0
Do, 09.04. 1:30 0
Do, 09.04. 1:00 0
Do, 09.04. 0:30 0
Do, 09.04. 0:00 0
Link zu dieser Seite / Seite empfehlen

Das Wetter in ...